sensor_id;sensor_type;location;lat;lon;timestamp;P1;durP1;ratioP1;P2;durP2;ratioP2
85894;SDS011;76441;49.954;8.842;2024-03-23T00:54:30;16.23;;;11.65;;
85894;SDS011;76441;49.954;8.842;2024-03-23T00:56:55;16.33;;;10.50;;
85894;SDS011;76441;49.954;8.842;2024-03-23T00:59:37;14.68;;;10.25;;
85894;SDS011;76441;49.954;8.842;2024-03-23T01:02:19;15.00;;;9.55;;
85894;SDS011;76441;49.954;8.842;2024-03-23T01:05:07;13.60;;;9.52;;
85894;SDS011;76441;49.954;8.842;2024-03-23T01:07:36;14.95;;;9.60;;
85894;SDS011;76441;49.954;8.842;2024-03-23T01:13:07;12.25;;;8.93;;
85894;SDS011;76441;49.954;8.842;2024-03-23T01:15:48;12.52;;;7.88;;
85894;SDS011;76441;49.954;8.842;2024-03-23T01:18:22;11.70;;;8.05;;
85894;SDS011;76441;49.954;8.842;2024-03-23T01:21:07;11.52;;;8.82;;
85894;SDS011;76441;49.954;8.842;2024-03-23T01:23:38;14.93;;;9.55;;
85894;SDS011;76441;49.954;8.842;2024-03-23T01:26:26;9.68;;;7.40;;
85894;SDS011;76441;49.954;8.842;2024-03-23T01:31:44;12.10;;;8.35;;
85894;SDS011;76441;49.954;8.842;2024-03-23T01:34:22;12.43;;;8.40;;
85894;SDS011;76441;49.954;8.842;2024-03-23T01:36:56;12.85;;;7.85;;
85894;SDS011;76441;49.954;8.842;2024-03-23T01:39:23;15.50;;;8.73;;
85894;SDS011;76441;49.954;8.842;2024-03-23T01:41:55;17.13;;;8.35;;
85894;SDS011;76441;49.954;8.842;2024-03-23T01:44:30;14.25;;;9.13;;
85894;SDS011;76441;49.954;8.842;2024-03-23T01:47:04;12.57;;;9.02;;
85894;SDS011;76441;49.954;8.842;2024-03-23T01:52:34;15.70;;;8.75;;
85894;SDS011;76441;49.954;8.842;2024-03-23T01:55:20;11.00;;;8.20;;
85894;SDS011;76441;49.954;8.842;2024-03-23T01:58:17;12.50;;;7.82;;
85894;SDS011;76441;49.954;8.842;2024-03-23T02:03:55;11.90;;;8.90;;
85894;SDS011;76441;49.954;8.842;2024-03-23T02:06:34;17.70;;;9.40;;
85894;SDS011;76441;49.954;8.842;2024-03-23T02:09:11;14.32;;;9.35;;
85894;SDS011;76441;49.954;8.842;2024-03-23T02:12:23;14.65;;;10.00;;
85894;SDS011;76441;49.954;8.842;2024-03-23T02:14:49;12.68;;;9.75;;
85894;SDS011;76441;49.954;8.842;2024-03-23T02:17:30;13.05;;;9.55;;
85894;SDS011;76441;49.954;8.842;2024-03-23T02:20:11;18.55;;;10.02;;
85894;SDS011;76441;49.954;8.842;2024-03-23T02:22:39;13.52;;;9.45;;
85894;SDS011;76441;49.954;8.842;2024-03-23T02:25:17;14.93;;;9.75;;
85894;SDS011;76441;49.954;8.842;2024-03-23T02:27:44;13.85;;;10.07;;
85894;SDS011;76441;49.954;8.842;2024-03-23T02:30:16;14.27;;;10.32;;
85894;SDS011;76441;49.954;8.842;2024-03-23T02:32:41;13.73;;;10.02;;
85894;SDS011;76441;49.954;8.842;2024-03-23T02:35:07;15.30;;;10.20;;
85894;SDS011;76441;49.954;8.842;2024-03-23T02:37:32;13.82;;;9.63;;
85894;SDS011;76441;49.954;8.842;2024-03-23T02:40:00;18.60;;;10.15;;
85894;SDS011;76441;49.954;8.842;2024-03-23T02:42:48;19.75;;;11.68;;
85894;SDS011;76441;49.954;8.842;2024-03-23T02:45:16;24.15;;;11.88;;
85894;SDS011;76441;49.954;8.842;2024-03-23T02:47:44;18.95;;;11.98;;
85894;SDS011;76441;49.954;8.842;2024-03-23T02:50:20;20.70;;;11.90;;
85894;SDS011;76441;49.954;8.842;2024-03-23T02:52:55;21.40;;;13.07;;
85894;SDS011;76441;49.954;8.842;2024-03-23T02:55:21;16.17;;;11.55;;
85894;SDS011;76441;49.954;8.842;2024-03-23T02:58:11;18.58;;;12.57;;
85894;SDS011;76441;49.954;8.842;2024-03-23T03:00:36;21.35;;;12.32;;
85894;SDS011;76441;49.954;8.842;2024-03-23T03:03:05;22.70;;;13.23;;
85894;SDS011;76441;49.954;8.842;2024-03-23T03:08:45;20.33;;;14.10;;
85894;SDS011;76441;49.954;8.842;2024-03-23T03:11:15;24.23;;;15.05;;
85894;SDS011;76441;49.954;8.842;2024-03-23T03:13:49;22.15;;;14.65;;
85894;SDS011;76441;49.954;8.842;2024-03-23T03:16:38;22.55;;;14.13;;
85894;SDS011;76441;49.954;8.842;2024-03-23T03:19:14;25.70;;;14.80;;
85894;SDS011;76441;49.954;8.842;2024-03-23T03:21:48;21.05;;;13.93;;
85894;SDS011;76441;49.954;8.842;2024-03-23T03:24:36;24.00;;;14.55;;
85894;SDS011;76441;49.954;8.842;2024-03-23T03:27:10;23.23;;;14.48;;
85894;SDS011;76441;49.954;8.842;2024-03-23T03:29:36;26.83;;;13.60;;
85894;SDS011;76441;49.954;8.842;2024-03-23T03:32:04;22.95;;;15.50;;
85894;SDS011;76441;49.954;8.842;2024-03-23T03:34:36;23.98;;;15.68;;
85894;SDS011;76441;49.954;8.842;2024-03-23T03:37:50;26.63;;;14.80;;
85894;SDS011;76441;49.954;8.842;2024-03-23T03:40:08;26.48;;;14.15;;
85894;SDS011;76441;49.954;8.842;2024-03-23T03:42:53;20.75;;;13.13;;
85894;SDS011;76441;49.954;8.842;2024-03-23T03:45:38;25.55;;;15.60;;
85894;SDS011;76441;49.954;8.842;2024-03-23T03:50:42;29.55;;;15.88;;
85894;SDS011;76441;49.954;8.842;2024-03-23T03:53:20;21.80;;;12.95;;
85894;SDS011;76441;49.954;8.842;2024-03-23T03:55:46;23.33;;;14.40;;
85894;SDS011;76441;49.954;8.842;2024-03-23T03:58:46;21.90;;;13.48;;
85894;SDS011;76441;49.954;8.842;2024-03-23T04:01:03;23.08;;;14.75;;
85894;SDS011;76441;49.954;8.842;2024-03-23T04:03:37;23.88;;;14.88;;
85894;SDS011;76441;49.954;8.842;2024-03-23T04:06:04;25.20;;;14.38;;
85894;SDS011;76441;49.954;8.842;2024-03-23T04:08:30;24.40;;;15.85;;
85894;SDS011;76441;49.954;8.842;2024-03-23T04:10:56;28.13;;;15.82;;
85894;SDS011;76441;49.954;8.842;2024-03-23T04:13:36;23.75;;;14.40;;
85894;SDS011;76441;49.954;8.842;2024-03-23T04:16:10;23.60;;;14.07;;
85894;SDS011;76441;49.954;8.842;2024-03-23T04:18:35;23.10;;;13.85;;
85894;SDS011;76441;49.954;8.842;2024-03-23T04:21:07;25.63;;;15.52;;
85894;SDS011;76441;49.954;8.842;2024-03-23T04:23:41;23.73;;;14.63;;
85894;SDS011;76441;49.954;8.842;2024-03-23T04:26:09;26.73;;;15.07;;
85894;SDS011;76441;49.954;8.842;2024-03-23T04:28:43;25.67;;;15.57;;
85894;SDS011;76441;49.954;8.842;2024-03-23T04:31:34;24.45;;;14.27;;
85894;SDS011;76441;49.954;8.842;2024-03-23T04:34:04;23.13;;;14.27;;
85894;SDS011;76441;49.954;8.842;2024-03-23T04:36:32;21.58;;;14.65;;
85894;SDS011;76441;49.954;8.842;2024-03-23T04:38:59;30.27;;;16.48;;
85894;SDS011;76441;49.954;8.842;2024-03-23T04:43:51;37.13;;;19.80;;
85894;SDS011;76441;49.954;8.842;2024-03-23T04:46:36;35.15;;;18.35;;
85894;SDS011;76441;49.954;8.842;2024-03-23T04:49:01;37.05;;;19.08;;
85894;SDS011;76441;49.954;8.842;2024-03-23T04:51:34;34.33;;;17.75;;
85894;SDS011;76441;49.954;8.842;2024-03-23T04:54:01;30.42;;;15.30;;
85894;SDS011;76441;49.954;8.842;2024-03-23T04:56:27;19.98;;;11.52;;
85894;SDS011;76441;49.954;8.842;2024-03-23T04:58:53;24.40;;;11.77;;
85894;SDS011;76441;49.954;8.842;2024-03-23T05:01:19;15.80;;;8.38;;
85894;SDS011;76441;49.954;8.842;2024-03-23T05:03:44;9.73;;;5.15;;
85894;SDS011;76441;49.954;8.842;2024-03-23T05:06:11;9.63;;;5.43;;
85894;SDS011;76441;49.954;8.842;2024-03-23T05:08:36;7.78;;;4.90;;
85894;SDS011;76441;49.954;8.842;2024-03-23T05:11:01;7.97;;;4.38;;
85894;SDS011;76441;49.954;8.842;2024-03-23T05:13:27;9.50;;;4.30;;
85894;SDS011;76441;49.954;8.842;2024-03-23T05:15:55;5.45;;;3.00;;
85894;SDS011;76441;49.954;8.842;2024-03-23T05:18:24;5.65;;;2.65;;
85894;SDS011;76441;49.954;8.842;2024-03-23T05:20:58;4.22;;;2.35;;
85894;SDS011;76441;49.954;8.842;2024-03-23T05:23:24;2.95;;;1.90;;
85894;SDS011;76441;49.954;8.842;2024-03-23T05:25:50;5.10;;;2.10;;
85894;SDS011;76441;49.954;8.842;2024-03-23T05:28:19;3.70;;;1.95;;
85894;SDS011;76441;49.954;8.842;2024-03-23T05:31:01;3.05;;;2.05;;
85894;SDS011;76441;49.954;8.842;2024-03-23T05:33:26;3.08;;;1.70;;
85894;SDS011;76441;49.954;8.842;2024-03-23T05:35:58;4.07;;;1.85;;
85894;SDS011;76441;49.954;8.842;2024-03-23T05:38:31;2.83;;;1.80;;
85894;SDS011;76441;49.954;8.842;2024-03-23T05:40:57;3.08;;;1.85;;
85894;SDS011;76441;49.954;8.842;2024-03-23T05:43:26;2.97;;;1.88;;
85894;SDS011;76441;49.954;8.842;2024-03-23T05:45:54;3.78;;;1.90;;
85894;SDS011;76441;49.954;8.842;2024-03-23T05:48:23;4.78;;;2.35;;
85894;SDS011;76441;49.954;8.842;2024-03-23T05:50:49;4.47;;;2.50;;
85894;SDS011;76441;49.954;8.842;2024-03-23T05:53:15;3.95;;;2.50;;
85894;SDS011;76441;49.954;8.842;2024-03-23T05:55:42;3.08;;;2.40;;
85894;SDS011;76441;49.954;8.842;2024-03-23T05:58:10;4.32;;;2.33;;
85894;SDS011;76441;49.954;8.842;2024-03-23T06:00:35;3.80;;;2.35;;
85894;SDS011;76441;49.954;8.842;2024-03-23T06:03:00;3.83;;;2.55;;
85894;SDS011;76441;49.954;8.842;2024-03-23T06:05:26;4.25;;;2.67;;
85894;SDS011;76441;49.954;8.842;2024-03-23T06:07:52;4.93;;;2.95;;
85894;SDS011;76441;49.954;8.842;2024-03-23T06:10:17;4.97;;;3.67;;
85894;SDS011;76441;49.954;8.842;2024-03-23T06:12:43;5.70;;;3.22;;
85894;SDS011;76441;49.954;8.842;2024-03-23T06:15:08;6.03;;;2.75;;
85894;SDS011;76441;49.954;8.842;2024-03-23T06:20:06;5.75;;;3.83;;
85894;SDS011;76441;49.954;8.842;2024-03-23T06:22:32;5.72;;;3.22;;
85894;SDS011;76441;49.954;8.842;2024-03-23T06:25:01;3.85;;;2.95;;
85894;SDS011;76441;49.954;8.842;2024-03-23T06:27:26;3.70;;;2.90;;
85894;SDS011;76441;49.954;8.842;2024-03-23T06:29:51;4.28;;;2.60;;
85894;SDS011;76441;49.954;8.842;2024-03-23T06:32:17;4.30;;;2.70;;
85894;SDS011;76441;49.954;8.842;2024-03-23T06:34:43;5.13;;;2.63;;
85894;SDS011;76441;49.954;8.842;2024-03-23T06:37:09;3.40;;;2.38;;
85894;SDS011;76441;49.954;8.842;2024-03-23T06:39:38;5.13;;;2.92;;
85894;SDS011;76441;49.954;8.842;2024-03-23T06:42:04;2.47;;;1.75;;
85894;SDS011;76441;49.954;8.842;2024-03-23T06:44:33;3.55;;;1.90;;
85894;SDS011;76441;49.954;8.842;2024-03-23T06:46:58;2.90;;;1.92;;
85894;SDS011;76441;49.954;8.842;2024-03-23T06:49:23;2.22;;;1.98;;
85894;SDS011;76441;49.954;8.842;2024-03-23T06:51:49;2.33;;;1.75;;
85894;SDS011;76441;49.954;8.842;2024-03-23T06:54:16;2.47;;;2.08;;
85894;SDS011;76441;49.954;8.842;2024-03-23T06:56:42;1.80;;;1.35;;
85894;SDS011;76441;49.954;8.842;2024-03-23T06:59:12;2.47;;;1.27;;
85894;SDS011;76441;49.954;8.842;2024-03-23T07:01:37;2.40;;;1.48;;
85894;SDS011;76441;49.954;8.842;2024-03-23T07:04:03;1.73;;;1.27;;
85894;SDS011;76441;49.954;8.842;2024-03-23T07:06:29;2.63;;;1.52;;
85894;SDS011;76441;49.954;8.842;2024-03-23T07:09:07;3.28;;;1.40;;
85894;SDS011;76441;49.954;8.842;2024-03-23T07:11:35;2.70;;;1.50;;
85894;SDS011;76441;49.954;8.842;2024-03-23T07:14:00;1.77;;;1.48;;
85894;SDS011;76441;49.954;8.842;2024-03-23T07:16:28;2.15;;;1.63;;
85894;SDS011;76441;49.954;8.842;2024-03-23T07:18:54;2.30;;;1.50;;
85894;SDS011;76441;49.954;8.842;2024-03-23T07:21:23;1.88;;;1.40;;
85894;SDS011;76441;49.954;8.842;2024-03-23T07:23:57;2.38;;;1.60;;
85894;SDS011;76441;49.954;8.842;2024-03-23T07:26:23;2.33;;;1.58;;
85894;SDS011;76441;49.954;8.842;2024-03-23T07:28:48;1.75;;;1.20;;
85894;SDS011;76441;49.954;8.842;2024-03-23T07:31:14;3.08;;;1.52;;
85894;SDS011;76441;49.954;8.842;2024-03-23T07:33:47;2.00;;;1.60;;
85894;SDS011;76441;49.954;8.842;2024-03-23T07:36:13;3.88;;;1.70;;
85894;SDS011;76441;49.954;8.842;2024-03-23T07:38:42;4.32;;;1.60;;
85894;SDS011;76441;49.954;8.842;2024-03-23T07:41:11;2.17;;;1.50;;
85894;SDS011;76441;49.954;8.842;2024-03-23T07:43:40;3.88;;;1.83;;
85894;SDS011;76441;49.954;8.842;2024-03-23T07:46:05;4.57;;;2.17;;
85894;SDS011;76441;49.954;8.842;2024-03-23T07:48:32;4.57;;;2.53;;
85894;SDS011;76441;49.954;8.842;2024-03-23T07:51:02;4.60;;;1.65;;
85894;SDS011;76441;49.954;8.842;2024-03-23T07:53:34;4.47;;;2.10;;
85894;SDS011;76441;49.954;8.842;2024-03-23T07:56:09;7.43;;;2.45;;
85894;SDS011;76441;49.954;8.842;2024-03-23T07:58:49;4.90;;;1.92;;
85894;SDS011;76441;49.954;8.842;2024-03-23T08:01:15;5.78;;;2.03;;
85894;SDS011;76441;49.954;8.842;2024-03-23T08:03:42;5.90;;;2.53;;
85894;SDS011;76441;49.954;8.842;2024-03-23T08:06:18;3.35;;;1.88;;
85894;SDS011;76441;49.954;8.842;2024-03-23T08:08:45;3.85;;;2.03;;
85894;SDS011;76441;49.954;8.842;2024-03-23T08:11:38;5.93;;;3.20;;
85894;SDS011;76441;49.954;8.842;2024-03-23T08:14:12;11.60;;;2.72;;
85894;SDS011;76441;49.954;8.842;2024-03-23T08:16:48;6.35;;;2.63;;
85894;SDS011;76441;49.954;8.842;2024-03-23T08:19:16;5.93;;;2.50;;
85894;SDS011;76441;49.954;8.842;2024-03-23T08:21:41;7.50;;;2.47;;
85894;SDS011;76441;49.954;8.842;2024-03-23T08:24:07;7.32;;;2.67;;
85894;SDS011;76441;49.954;8.842;2024-03-23T08:26:46;6.82;;;2.78;;
85894;SDS011;76441;49.954;8.842;2024-03-23T08:29:46;5.97;;;2.70;;
85894;SDS011;76441;49.954;8.842;2024-03-23T08:32:21;5.38;;;3.92;;
85894;SDS011;76441;49.954;8.842;2024-03-23T08:34:46;6.68;;;3.10;;
85894;SDS011;76441;49.954;8.842;2024-03-23T08:40:16;7.63;;;4.00;;
85894;SDS011;76441;49.954;8.842;2024-03-23T08:42:47;9.35;;;3.90;;
85894;SDS011;76441;49.954;8.842;2024-03-23T08:45:15;6.90;;;3.30;;
85894;SDS011;76441;49.954;8.842;2024-03-23T08:47:41;7.57;;;3.58;;
85894;SDS011;76441;49.954;8.842;2024-03-23T08:50:06;6.65;;;3.65;;
85894;SDS011;76441;49.954;8.842;2024-03-23T08:52:43;7.63;;;3.78;;
85894;SDS011;76441;49.954;8.842;2024-03-23T08:55:15;6.30;;;3.67;;
85894;SDS011;76441;49.954;8.842;2024-03-23T08:57:46;8.13;;;3.80;;
85894;SDS011;76441;49.954;8.842;2024-03-23T09:00:21;9.32;;;3.90;;
85894;SDS011;76441;49.954;8.842;2024-03-23T09:05:38;6.97;;;3.20;;
85894;SDS011;76441;49.954;8.842;2024-03-23T09:08:12;6.32;;;3.50;;
85894;SDS011;76441;49.954;8.842;2024-03-23T09:10:41;6.72;;;3.65;;
85894;SDS011;76441;49.954;8.842;2024-03-23T09:13:16;8.63;;;4.32;;
85894;SDS011;76441;49.954;8.842;2024-03-23T09:18:48;6.45;;;3.30;;
85894;SDS011;76441;49.954;8.842;2024-03-23T09:24:31;5.93;;;3.15;;
85894;SDS011;76441;49.954;8.842;2024-03-23T09:27:00;10.75;;;3.47;;
85894;SDS011;76441;49.954;8.842;2024-03-23T09:29:25;6.15;;;4.00;;
85894;SDS011;76441;49.954;8.842;2024-03-23T09:34:25;6.80;;;3.67;;
85894;SDS011;76441;49.954;8.842;2024-03-23T09:36:51;9.98;;;3.60;;
85894;SDS011;76441;49.954;8.842;2024-03-23T09:39:19;9.60;;;3.85;;
85894;SDS011;76441;49.954;8.842;2024-03-23T09:41:45;8.05;;;3.65;;
85894;SDS011;76441;49.954;8.842;2024-03-23T09:44:14;8.35;;;3.60;;
85894;SDS011;76441;49.954;8.842;2024-03-23T09:46:45;9.77;;;3.55;;
85894;SDS011;76441;49.954;8.842;2024-03-23T09:49:34;9.77;;;3.65;;
85894;SDS011;76441;49.954;8.842;2024-03-23T09:52:01;10.93;;;3.85;;
85894;SDS011;76441;49.954;8.842;2024-03-23T09:54:30;8.25;;;4.00;;
85894;SDS011;76441;49.954;8.842;2024-03-23T09:57:03;9.05;;;4.32;;
85894;SDS011;76441;49.954;8.842;2024-03-23T09:59:32;13.30;;;3.85;;
85894;SDS011;76441;49.954;8.842;2024-03-23T10:02:15;10.93;;;4.05;;
85894;SDS011;76441;49.954;8.842;2024-03-23T10:04:48;11.98;;;4.25;;
85894;SDS011;76441;49.954;8.842;2024-03-23T10:07:19;10.32;;;4.53;;
85894;SDS011;76441;49.954;8.842;2024-03-23T10:09:45;6.63;;;3.75;;
85894;SDS011;76441;49.954;8.842;2024-03-23T10:12:43;7.00;;;3.63;;
85894;SDS011;76441;49.954;8.842;2024-03-23T10:15:20;11.55;;;3.85;;
85894;SDS011;76441;49.954;8.842;2024-03-23T10:17:47;6.90;;;3.83;;
85894;SDS011;76441;49.954;8.842;2024-03-23T10:20:36;8.63;;;3.78;;
85894;SDS011;76441;49.954;8.842;2024-03-23T10:23:04;9.65;;;3.58;;
85894;SDS011;76441;49.954;8.842;2024-03-23T10:25:40;8.88;;;3.47;;
85894;SDS011;76441;49.954;8.842;2024-03-23T10:28:05;11.00;;;3.63;;
85894;SDS011;76441;49.954;8.842;2024-03-23T10:30:41;8.48;;;3.28;;
85894;SDS011;76441;49.954;8.842;2024-03-23T10:33:10;9.05;;;3.03;;
85894;SDS011;76441;49.954;8.842;2024-03-23T10:35:53;8.10;;;3.35;;
85894;SDS011;76441;49.954;8.842;2024-03-23T10:38:37;5.45;;;3.25;;
85894;SDS011;76441;49.954;8.842;2024-03-23T10:41:20;6.35;;;3.03;;
85894;SDS011;76441;49.954;8.842;2024-03-23T10:44:01;9.13;;;2.80;;
85894;SDS011;76441;49.954;8.842;2024-03-23T10:46:42;9.30;;;2.92;;
85894;SDS011;76441;49.954;8.842;2024-03-23T10:49:07;6.97;;;3.10;;
85894;SDS011;76441;49.954;8.842;2024-03-23T10:51:33;9.93;;;2.80;;
85894;SDS011;76441;49.954;8.842;2024-03-23T10:54:12;7.95;;;2.97;;
85894;SDS011;76441;49.954;8.842;2024-03-23T10:56:50;6.40;;;3.42;;
85894;SDS011;76441;49.954;8.842;2024-03-23T10:59:40;7.80;;;3.63;;
85894;SDS011;76441;49.954;8.842;2024-03-23T11:05:41;9.20;;;3.60;;
85894;SDS011;76441;49.954;8.842;2024-03-23T11:08:35;9.15;;;3.25;;
85894;SDS011;76441;49.954;8.842;2024-03-23T11:11:22;8.43;;;3.38;;
85894;SDS011;76441;49.954;8.842;2024-03-23T11:13:54;6.25;;;2.85;;
85894;SDS011;76441;49.954;8.842;2024-03-23T11:16:23;5.00;;;2.28;;
85894;SDS011;76441;49.954;8.842;2024-03-23T11:18:52;4.97;;;1.98;;
85894;SDS011;76441;49.954;8.842;2024-03-23T11:24:31;13.63;;;2.40;;
85894;SDS011;76441;49.954;8.842;2024-03-23T11:27:27;4.65;;;2.05;;
85894;SDS011;76441;49.954;8.842;2024-03-23T11:30:09;5.28;;;2.15;;
85894;SDS011;76441;49.954;8.842;2024-03-23T11:35:37;4.22;;;2.22;;
85894;SDS011;76441;49.954;8.842;2024-03-23T11:40:41;7.43;;;2.13;;
85894;SDS011;76441;49.954;8.842;2024-03-23T11:43:08;7.55;;;2.65;;
85894;SDS011;76441;49.954;8.842;2024-03-23T11:45:39;6.40;;;2.72;;
85894;SDS011;76441;49.954;8.842;2024-03-23T11:48:14;6.78;;;2.17;;
85894;SDS011;76441;49.954;8.842;2024-03-23T11:50:49;4.70;;;2.60;;
85894;SDS011;76441;49.954;8.842;2024-03-23T11:53:20;7.88;;;2.58;;
85894;SDS011;76441;49.954;8.842;2024-03-23T11:55:52;6.18;;;2.22;;
85894;SDS011;76441;49.954;8.842;2024-03-23T11:58:20;8.05;;;2.40;;
85894;SDS011;76441;49.954;8.842;2024-03-23T12:00:49;6.10;;;1.70;;
85894;SDS011;76441;49.954;8.842;2024-03-23T12:03:25;4.25;;;2.05;;
85894;SDS011;76441;49.954;8.842;2024-03-23T12:06:00;4.93;;;2.30;;
85894;SDS011;76441;49.954;8.842;2024-03-23T12:11:12;4.30;;;2.10;;
85894;SDS011;76441;49.954;8.842;2024-03-23T12:13:40;5.68;;;2.35;;
85894;SDS011;76441;49.954;8.842;2024-03-23T12:16:19;2.70;;;1.70;;
85894;SDS011;76441;49.954;8.842;2024-03-23T12:18:47;5.45;;;2.17;;
85894;SDS011;76441;49.954;8.842;2024-03-23T12:21:17;2.55;;;1.77;;
85894;SDS011;76441;49.954;8.842;2024-03-23T12:23:44;3.15;;;2.30;;
85894;SDS011;76441;49.954;8.842;2024-03-23T12:26:11;6.18;;;2.40;;
85894;SDS011;76441;49.954;8.842;2024-03-23T12:28:37;6.68;;;2.30;;
85894;SDS011;76441;49.954;8.842;2024-03-23T12:31:03;5.95;;;2.53;;
85894;SDS011;76441;49.954;8.842;2024-03-23T12:33:29;4.57;;;2.40;;
85894;SDS011;76441;49.954;8.842;2024-03-23T12:35:54;3.78;;;2.28;;
85894;SDS011;76441;49.954;8.842;2024-03-23T12:38:20;5.18;;;2.55;;
85894;SDS011;76441;49.954;8.842;2024-03-23T12:40:49;4.90;;;2.20;;
85894;SDS011;76441;49.954;8.842;2024-03-23T12:43:15;6.35;;;2.92;;
85894;SDS011;76441;49.954;8.842;2024-03-23T12:45:45;5.53;;;2.50;;
85894;SDS011;76441;49.954;8.842;2024-03-23T12:48:11;3.95;;;2.40;;
85894;SDS011;76441;49.954;8.842;2024-03-23T12:50:36;7.53;;;2.60;;
85894;SDS011;76441;49.954;8.842;2024-03-23T12:53:02;5.80;;;3.03;;
85894;SDS011;76441;49.954;8.842;2024-03-23T12:55:27;5.57;;;2.47;;
85894;SDS011;76441;49.954;8.842;2024-03-23T12:57:52;5.07;;;2.80;;
85894;SDS011;76441;49.954;8.842;2024-03-23T13:00:19;5.00;;;2.22;;
85894;SDS011;76441;49.954;8.842;2024-03-23T13:02:45;5.53;;;2.72;;
85894;SDS011;76441;49.954;8.842;2024-03-23T13:05:13;5.03;;;2.28;;
85894;SDS011;76441;49.954;8.842;2024-03-23T13:07:42;8.35;;;2.67;;
85894;SDS011;76441;49.954;8.842;2024-03-23T13:10:10;8.25;;;2.38;;
85894;SDS011;76441;49.954;8.842;2024-03-23T13:12:45;4.95;;;2.60;;
85894;SDS011;76441;49.954;8.842;2024-03-23T13:15:10;6.63;;;2.53;;
85894;SDS011;76441;49.954;8.842;2024-03-23T13:17:42;3.58;;;2.47;;
85894;SDS011;76441;49.954;8.842;2024-03-23T13:20:08;5.47;;;2.47;;
85894;SDS011;76441;49.954;8.842;2024-03-23T13:22:38;5.05;;;2.47;;
85894;SDS011;76441;49.954;8.842;2024-03-23T13:25:04;6.40;;;3.08;;
85894;SDS011;76441;49.954;8.842;2024-03-23T13:27:29;7.30;;;3.17;;
85894;SDS011;76441;49.954;8.842;2024-03-23T13:29:54;6.47;;;3.00;;
85894;SDS011;76441;49.954;8.842;2024-03-23T13:32:20;8.20;;;3.00;;
85894;SDS011;76441;49.954;8.842;2024-03-23T13:34:45;3.95;;;2.80;;
85894;SDS011;76441;49.954;8.842;2024-03-23T13:37:11;4.13;;;2.90;;
85894;SDS011;76441;49.954;8.842;2024-03-23T13:39:38;5.65;;;2.83;;
85894;SDS011;76441;49.954;8.842;2024-03-23T13:42:03;6.25;;;2.58;;
85894;SDS011;76441;49.954;8.842;2024-03-23T13:44:36;4.28;;;2.70;;
85894;SDS011;76441;49.954;8.842;2024-03-23T13:47:05;4.97;;;2.60;;
85894;SDS011;76441;49.954;8.842;2024-03-23T13:49:33;6.43;;;2.55;;
85894;SDS011;76441;49.954;8.842;2024-03-23T13:52:01;3.13;;;2.20;;
85894;SDS011;76441;49.954;8.842;2024-03-23T13:54:29;3.65;;;2.50;;
85894;SDS011;76441;49.954;8.842;2024-03-23T13:56:55;5.15;;;2.38;;
85894;SDS011;76441;49.954;8.842;2024-03-23T13:59:22;4.72;;;2.30;;
85894;SDS011;76441;49.954;8.842;2024-03-23T14:01:50;5.35;;;2.95;;
85894;SDS011;76441;49.954;8.842;2024-03-23T14:04:18;5.97;;;2.65;;
85894;SDS011;76441;49.954;8.842;2024-03-23T14:06:50;5.43;;;2.45;;
85894;SDS011;76441;49.954;8.842;2024-03-23T14:09:18;6.80;;;3.17;;
85894;SDS011;76441;49.954;8.842;2024-03-23T14:11:47;5.03;;;2.97;;
85894;SDS011;76441;49.954;8.842;2024-03-23T14:14:27;7.57;;;4.28;;
85894;SDS011;76441;49.954;8.842;2024-03-23T14:16:53;6.75;;;4.63;;
85894;SDS011;76441;49.954;8.842;2024-03-23T14:19:21;4.05;;;2.70;;
85894;SDS011;76441;49.954;8.842;2024-03-23T14:21:55;4.88;;;2.55;;
85894;SDS011;76441;49.954;8.842;2024-03-23T14:24:21;7.13;;;3.75;;
85894;SDS011;76441;49.954;8.842;2024-03-23T14:26:46;5.00;;;2.92;;
85894;SDS011;76441;49.954;8.842;2024-03-23T14:29:12;5.95;;;3.10;;
85894;SDS011;76441;49.954;8.842;2024-03-23T14:31:40;6.00;;;3.35;;
85894;SDS011;76441;49.954;8.842;2024-03-23T14:34:05;4.28;;;3.88;;
85894;SDS011;76441;49.954;8.842;2024-03-23T14:36:31;6.47;;;2.83;;
85894;SDS011;76441;49.954;8.842;2024-03-23T14:38:56;5.68;;;3.15;;
85894;SDS011;76441;49.954;8.842;2024-03-23T14:41:21;6.22;;;3.13;;
85894;SDS011;76441;49.954;8.842;2024-03-23T14:43:47;8.27;;;3.42;;
85894;SDS011;76441;49.954;8.842;2024-03-23T14:46:20;6.82;;;3.13;;
85894;SDS011;76441;49.954;8.842;2024-03-23T14:48:46;6.32;;;3.88;;
85894;SDS011;76441;49.954;8.842;2024-03-23T14:51:17;7.05;;;3.50;;
85894;SDS011;76441;49.954;8.842;2024-03-23T14:53:45;9.10;;;3.20;;
85894;SDS011;76441;49.954;8.842;2024-03-23T14:56:16;9.50;;;3.67;;
85894;SDS011;76441;49.954;8.842;2024-03-23T14:58:52;5.97;;;3.63;;
85894;SDS011;76441;49.954;8.842;2024-03-23T15:01:21;6.60;;;3.53;;
85894;SDS011;76441;49.954;8.842;2024-03-23T15:03:46;4.22;;;2.95;;
85894;SDS011;76441;49.954;8.842;2024-03-23T15:06:12;4.22;;;2.78;;
85894;SDS011;76441;49.954;8.842;2024-03-23T15:08:38;5.85;;;3.38;;
85894;SDS011;76441;49.954;8.842;2024-03-23T15:11:09;7.03;;;3.25;;
85894;SDS011;76441;49.954;8.842;2024-03-23T15:13:38;5.93;;;3.63;;
85894;SDS011;76441;49.954;8.842;2024-03-23T15:16:06;8.07;;;4.00;;
85894;SDS011;76441;49.954;8.842;2024-03-23T15:18:41;4.65;;;3.72;;
85894;SDS011;76441;49.954;8.842;2024-03-23T15:21:06;4.45;;;3.05;;
85894;SDS011;76441;49.954;8.842;2024-03-23T15:23:34;6.97;;;2.60;;
85894;SDS011;76441;49.954;8.842;2024-03-23T15:26:00;6.13;;;2.50;;
85894;SDS011;76441;49.954;8.842;2024-03-23T15:28:27;5.00;;;2.25;;
85894;SDS011;76441;49.954;8.842;2024-03-23T15:31:05;4.35;;;2.47;;
85894;SDS011;76441;49.954;8.842;2024-03-23T15:33:31;6.00;;;2.55;;
85894;SDS011;76441;49.954;8.842;2024-03-23T15:38:29;3.95;;;1.70;;
85894;SDS011;76441;49.954;8.842;2024-03-23T15:43:31;3.15;;;1.70;;
85894;SDS011;76441;49.954;8.842;2024-03-23T15:45:57;2.53;;;1.27;;
85894;SDS011;76441;49.954;8.842;2024-03-23T15:48:25;3.40;;;2.13;;
85894;SDS011;76441;49.954;8.842;2024-03-23T15:50:56;3.15;;;1.80;;
85894;SDS011;76441;49.954;8.842;2024-03-23T15:53:25;8.20;;;3.63;;
85894;SDS011;76441;49.954;8.842;2024-03-23T15:55:58;2.50;;;1.77;;
85894;SDS011;76441;49.954;8.842;2024-03-23T15:58:30;2.67;;;1.65;;
85894;SDS011;76441;49.954;8.842;2024-03-23T16:01:08;4.70;;;1.70;;
85894;SDS011;76441;49.954;8.842;2024-03-23T16:03:35;5.22;;;1.55;;
85894;SDS011;76441;49.954;8.842;2024-03-23T16:08:29;3.60;;;1.95;;
85894;SDS011;76441;49.954;8.842;2024-03-23T16:10:59;7.05;;;1.95;;
85894;SDS011;76441;49.954;8.842;2024-03-23T16:13:28;2.80;;;1.58;;
85894;SDS011;76441;49.954;8.842;2024-03-23T16:18:31;3.42;;;2.67;;
85894;SDS011;76441;49.954;8.842;2024-03-23T16:21:08;4.28;;;2.65;;
85894;SDS011;76441;49.954;8.842;2024-03-23T16:24:10;3.83;;;2.13;;
85894;SDS011;76441;49.954;8.842;2024-03-23T16:26:28;4.53;;;3.03;;
85894;SDS011;76441;49.954;8.842;2024-03-23T16:28:59;4.50;;;1.90;;
85894;SDS011;76441;49.954;8.842;2024-03-23T16:31:28;3.38;;;3.08;;
85894;SDS011;76441;49.954;8.842;2024-03-23T16:33:53;4.32;;;2.08;;
85894;SDS011;76441;49.954;8.842;2024-03-23T16:36:22;4.28;;;2.78;;
85894;SDS011;76441;49.954;8.842;2024-03-23T16:38:50;5.20;;;2.10;;
85894;SDS011;76441;49.954;8.842;2024-03-23T16:41:19;5.25;;;1.70;;
85894;SDS011;76441;49.954;8.842;2024-03-23T16:43:45;2.97;;;1.75;;
85894;SDS011;76441;49.954;8.842;2024-03-23T16:46:14;18.10;;;9.82;;
85894;SDS011;76441;49.954;8.842;2024-03-23T16:48:42;12.07;;;7.25;;
85894;SDS011;76441;49.954;8.842;2024-03-23T16:53:37;4.10;;;2.13;;
85894;SDS011;76441;49.954;8.842;2024-03-23T16:56:08;2.40;;;2.10;;
85894;SDS011;76441;49.954;8.842;2024-03-23T16:58:40;3.90;;;3.20;;
85894;SDS011;76441;49.954;8.842;2024-03-23T17:01:12;3.08;;;1.52;;